Time;durP1;ratioP1;P1;durP2;ratioP2;P2;SDS_P1;SDS_P2;PMS_P1;PMS_P2;Temp;Humidity;BMP_temperature;BMP_pressure;BME280_temperature;BME280_humidity;BME280_pressure;Samples;Min_cycle;Max_cycle;Signal;HPM_P1;HPM_P2
2024/02/14 00:01:25;;;;;;;3.03;1.48;;;;;;;9.05;90.34;99640.75;5016471;28;20554;-79
2024/02/14 00:03:50;;;;;;;3.20;1.60;;;;;;;9.16;89.53;99653.34;5016510;28;20121;-79
2024/02/14 00:06:16;;;;;;;1.70;1.20;;;;;;;9.07;89.39;99636.03;5030462;28;20037;-79
2024/02/14 00:08:41;;;;;;;2.92;1.52;;;;;;;8.98;90.70;99642.69;5029765;28;20534;-79
2024/02/14 00:11:07;;;;;;;2.17;1.40;;;;;;;9.25;90.00;99662.69;5029800;28;20037;-79
2024/02/14 00:13:33;;;;;;;2.45;1.52;;;;;;;9.25;89.81;99660.03;5028256;28;20132;-79
2024/02/14 00:16:00;;;;;;;2.88;1.60;;;;;;;9.13;90.19;99651.09;5028275;28;20049;-78
2024/02/14 00:18:25;;;;;;;3.25;1.70;;;;;;;9.35;89.27;99674.66;5029783;28;20032;-79
2024/02/14 00:20:51;;;;;;;2.85;1.33;;;;;;;9.15;89.79;99664.19;5029321;28;20041;-79
2024/02/14 00:23:16;;;;;;;2.65;1.65;;;;;;;8.99;89.83;99633.66;5028066;28;20546;-79
2024/02/14 00:25:42;;;;;;;2.15;1.42;;;;;;;9.20;90.63;99683.81;5029228;28;20467;-78
2024/02/14 00:28:07;;;;;;;2.60;1.58;;;;;;;9.07;90.66;99665.28;5027849;28;20514;-79
2024/02/14 00:30:32;;;;;;;3.05;1.50;;;;;;;9.01;90.39;99656.34;5029012;28;20033;-78
2024/02/14 00:32:58;;;;;;;2.33;1.50;;;;;;;9.19;89.71;99660.91;5029311;28;20537;-78
2024/02/14 00:35:24;;;;;;;2.25;1.60;;;;;;;9.25;90.32;99678.66;5029181;28;20036;-78
2024/02/14 00:37:49;;;;;;;1.85;1.40;;;;;;;9.23;89.19;99671.91;5029195;28;20033;-78
2024/02/14 00:40:15;;;;;;;2.63;1.55;;;;;;;9.07;90.04;99636.03;5019168;28;20427;-79
2024/02/14 00:42:40;;;;;;;3.30;1.75;;;;;;;9.17;90.12;99662.94;5021355;28;20116;-78
2024/02/14 00:45:08;;;;;;;2.65;1.15;;;;;;;9.06;89.62;99663.69;5029030;28;20033;-78
2024/02/14 00:47:34;;;;;;;4.78;2.17;;;;;;;9.18;89.98;99680.53;5029109;28;20021;-78
2024/02/14 00:50:00;;;;;;;3.05;1.33;;;;;;;8.91;90.66;99645.41;5028323;28;20041;-78
2024/02/14 00:52:25;;;;;;;3.70;1.70;;;;;;;9.13;89.75;99656.44;5027539;28;20029;-78
2024/02/14 00:54:51;;;;;;;2.03;1.50;;;;;;;9.06;89.13;99650.38;5029106;28;20030;-78
2024/02/14 00:57:17;;;;;;;2.92;1.50;;;;;;;8.92;90.03;99644.34;5028968;28;20052;-78
2024/02/14 00:59:43;;;;;;;5.75;2.10;;;;;;;9.13;88.64;99653.78;5023657;28;20033;-79
2024/02/14 01:02:08;;;;;;;2.97;1.30;;;;;;;9.36;86.61;99666.47;5026392;28;20084;-79
2024/02/14 01:04:36;;;;;;;4.20;1.83;;;;;;;9.16;86.48;99633.91;5028302;28;20021;-78
2024/02/14 01:07:02;;;;;;;2.47;1.30;;;;;;;9.02;87.90;99651.84;5027751;28;20076;-78
2024/02/14 01:09:27;;;;;;;1.67;1.23;;;;;;;9.13;89.03;99683.03;5028747;28;20028;-77
2024/02/14 01:11:53;;;;;;;3.03;2.00;;;;;;;8.95;89.18;99667.03;5028781;28;20033;-79
2024/02/14 01:14:18;;;;;;;3.00;1.60;;;;;;;9.13;89.99;99685.69;5028452;28;20029;-78
2024/02/14 01:16:45;;;;;;;1.90;1.42;;;;;;;8.98;88.72;99671.94;5028653;28;20470;-78
2024/02/14 01:19:11;;;;;;;2.40;1.15;;;;;;;8.99;89.81;99684.19;5028781;28;20072;-79
2024/02/14 01:21:36;;;;;;;1.30;1.10;;;;;;;8.89;91.18;99687.34;5028081;28;20029;-78
2024/02/14 01:24:02;;;;;;;2.78;1.48;;;;;;;8.89;91.16;99671.41;5027233;28;20037;-79
2024/02/14 01:26:27;;;;;;;2.38;1.60;;;;;;;8.91;90.38;99653.38;5027986;28;20033;-79
2024/02/14 01:28:53;;;;;;;2.33;1.80;;;;;;;8.93;90.31;99666.44;5028260;28;20083;-78
2024/02/14 01:31:19;;;;;;;2.13;1.52;;;;;;;8.88;90.23;99663.63;5027018;28;20026;-78
2024/02/14 01:33:45;;;;;;;2.00;1.40;;;;;;;9.03;90.02;99696.00;5028265;28;20045;-78
2024/02/14 01:36:11;;;;;;;2.45;1.60;;;;;;;8.74;90.92;99674.34;5027974;28;20029;-77
2024/02/14 01:38:36;;;;;;;2.03;1.42;;;;;;;8.85;90.96;99665.69;5028074;28;20056;-78
2024/02/14 01:41:03;;;;;;;2.50;1.70;;;;;;;8.76;91.13;99661.66;5026610;28;20023;-78
2024/02/14 01:43:29;;;;;;;2.35;1.52;;;;;;;8.94;91.59;99689.34;5026290;28;20418;-79
2024/02/14 01:46:03;;;;;;;2.28;1.60;;;;;;;8.95;91.23;99680.31;5028114;28;20033;-78
2024/02/14 01:48:28;;;;;;;2.78;1.83;;;;;;;8.71;92.31;99672.16;5027722;28;20036;-79
2024/02/14 01:50:54;;;;;;;2.05;1.52;;;;;;;8.94;91.58;99700.00;5027971;28;20021;-78
2024/02/14 01:53:20;;;;;;;2.63;1.73;;;;;;;8.75;91.11;99686.63;5027684;28;20032;-78
2024/02/14 01:55:45;;;;;;;2.92;1.63;;;;;;;8.88;92.07;99695.53;5027338;28;20044;-78
2024/02/14 01:58:11;;;;;;;1.95;1.35;;;;;;;8.75;93.33;99691.94;5027772;28;20038;-78
2024/02/14 02:00:37;;;;;;;3.50;1.65;;;;;;;8.62;95.73;99697.34;5027939;28;20063;-78
2024/02/14 02:03:03;;;;;;;3.03;1.80;;;;;;;8.56;98.39;99700.88;5026723;28;20048;-78
2024/02/14 02:05:29;;;;;;;2.63;1.60;;;;;;;8.57;98.00;99689.22;5027235;28;20418;-79
2024/02/14 02:07:55;;;;;;;3.28;1.73;;;;;;;8.45;99.48;99665.97;5027945;28;20509;-79
2024/02/14 02:10:22;;;;;;;3.08;2.10;;;;;;;8.65;100.00;99686.31;5026089;28;20036;-79
2024/02/14 02:12:48;;;;;;;2.90;1.63;;;;;;;8.50;100.00;99685.78;5026073;28;20053;-78
2024/02/14 02:15:14;;;;;;;4.38;2.10;;;;;;;8.55;100.00;99691.28;5026028;28;20041;-79
2024/02/14 02:17:42;;;;;;;3.00;1.80;;;;;;;8.32;100.00;99681.97;5027305;28;20134;-79
2024/02/14 02:20:08;;;;;;;2.20;1.55;;;;;;;8.39;100.00;99703.19;5027489;28;20136;-79
2024/02/14 02:22:35;;;;;;;2.25;1.45;;;;;;;8.36;100.00;99704.44;5027177;28;20521;-79
2024/02/14 02:25:07;;;;;;;3.53;2.05;;;;;;;8.38;100.00;99698.91;5026550;28;20026;-79
2024/02/14 02:27:37;;;;;;;2.55;1.58;;;;;;;8.22;100.00;99697.56;5029868;28;20099;-79
2024/02/14 02:30:05;;;;;;;3.45;2.00;;;;;;;8.41;100.00;99723.22;5027621;28;20033;-78
2024/02/14 02:32:30;;;;;;;3.25;1.65;;;;;;;8.32;100.00;99702.44;5027857;28;20056;-79
2024/02/14 02:34:56;;;;;;;2.72;1.65;;;;;;;8.32;100.00;99708.56;5027349;28;20033;-80
2024/02/14 02:37:21;;;;;;;2.97;1.70;;;;;;;8.38;100.00;99705.03;5027836;28;20030;-79
2024/02/14 02:39:47;;;;;;;2.83;1.63;;;;;;;8.51;100.00;99722.78;5027486;28;20036;-79
2024/02/14 02:42:14;;;;;;;2.92;2.13;;;;;;;8.61;100.00;99731.09;5025966;28;20025;-79
2024/02/14 02:44:39;;;;;;;2.97;1.90;;;;;;;8.50;100.00;99721.16;5026957;28;20030;-78
2024/02/14 02:47:05;;;;;;;3.30;2.03;;;;;;;8.54;100.00;99710.91;5027167;28;20033;-79
2024/02/14 02:49:30;;;;;;;3.20;2.03;;;;;;;8.47;100.00;99720.75;5027364;28;20028;-78
2024/02/14 02:51:56;;;;;;;3.92;2.15;;;;;;;8.45;99.74;99716.47;5026133;28;20029;-79
2024/02/14 02:54:23;;;;;;;3.72;2.08;;;;;;;8.43;98.48;99721.19;5027381;28;20038;-79
2024/02/14 02:56:49;;;;;;;3.05;1.92;;;;;;;8.55;100.00;99753.22;5026181;28;20080;-78
2024/02/14 02:59:16;;;;;;;3.85;1.98;;;;;;;8.44;100.00;99746.75;5027233;28;20049;-79
2024/02/14 03:01:42;;;;;;;3.30;2.00;;;;;;;8.45;99.37;99724.44;5025982;28;20029;-79
2024/02/14 03:04:08;;;;;;;3.63;2.25;;;;;;;8.40;100.00;99713.63;5026758;28;21001;-79
2024/02/14 03:06:33;;;;;;;3.58;2.17;;;;;;;8.50;99.63;99725.63;5027278;28;20029;-79
2024/02/14 03:08:59;;;;;;;5.55;2.80;;;;;;;8.50;99.62;99731.78;5026611;28;20410;-78
2024/02/14 03:11:27;;;;;;;4.53;2.35;;;;;;;8.60;100.00;99764.03;5034451;28;20021;-80
2024/02/14 03:13:53;;;;;;;4.68;2.88;;;;;;;8.52;100.00;99761.63;5039052;28;20061;-77
2024/02/14 03:16:18;;;;;;;5.35;2.20;;;;;;;8.41;100.00;99739.19;5048211;28;20144;-78
2024/02/14 03:18:44;;;;;;;4.13;2.30;;;;;;;8.25;100.00;99752.91;5033055;28;20457;-78
2024/02/14 03:21:11;;;;;;;4.97;2.40;;;;;;;8.46;99.50;99773.09;5030398;28;20083;-78
2024/02/14 03:23:37;;;;;;;3.67;2.17;;;;;;;8.44;100.00;99770.66;5030264;28;20537;-78
2024/02/14 03:26:07;;;;;;;3.58;2.40;;;;;;;8.34;100.00;99746.34;5030380;28;20038;-79
2024/02/14 03:28:33;;;;;;;4.60;2.67;;;;;;;7.94;100.00;99711.19;5030790;28;20032;-79
2024/02/14 03:30:58;;;;;;;2.97;1.90;;;;;;;8.42;99.66;99766.59;5030342;28;20025;-78
2024/02/14 03:33:24;;;;;;;3.80;2.17;;;;;;;8.39;98.85;99780.25;5029957;28;20475;-78
2024/02/14 03:35:50;;;;;;;3.53;2.20;;;;;;;8.34;98.23;99780.88;5030319;28;20087;-79
2024/02/14 03:38:25;;;;;;;4.00;2.40;;;;;;;8.40;98.15;99785.34;5028717;28;20037;-79
2024/02/14 03:40:50;;;;;;;3.15;2.10;;;;;;;8.43;96.25;99787.63;5030447;28;20033;-78
2024/02/14 03:43:16;;;;;;;4.93;2.53;;;;;;;8.42;97.54;99780.69;5029771;28;20083;-79
2024/02/14 03:45:41;;;;;;;4.22;2.67;;;;;;;8.33;95.47;99762.50;5030333;28;20112;-79
2024/02/14 03:48:07;;;;;;;4.65;2.40;;;;;;;8.22;96.22;99762.13;5028364;28;20030;-79
2024/02/14 03:50:32;;;;;;;4.18;2.45;;;;;;;8.32;96.20;99790.91;5030068;28;20056;-79
2024/02/14 03:52:58;;;;;;;4.45;2.42;;;;;;;8.10;96.28;99747.88;5016948;28;20038;-79
2024/02/14 03:55:24;;;;;;;5.10;2.60;;;;;;;8.30;93.56;99769.06;5025461;28;20025;-79
2024/02/14 03:57:50;;;;;;;4.95;2.50;;;;;;;8.51;94.77;99801.69;5030865;28;20583;-79
2024/02/14 04:00:16;;;;;;;4.35;2.60;;;;;;;8.41;94.68;99787.00;5030020;28;20090;-79
2024/02/14 04:02:42;;;;;;;4.95;2.45;;;;;;;8.17;94.86;99774.41;5030165;28;20100;-79
2024/02/14 04:05:08;;;;;;;4.18;2.40;;;;;;;8.44;96.62;99805.19;5029585;28;20029;-79
2024/02/14 04:07:37;;;;;;;4.43;2.58;;;;;;;8.10;96.11;99758.50;5028197;28;20056;-79
2024/02/14 04:10:03;;;;;;;4.15;2.40;;;;;;;8.36;95.96;99794.78;5029965;28;20112;-79
2024/02/14 04:12:28;;;;;;;4.65;2.53;;;;;;;8.52;96.25;99809.47;5029896;28;20172;-79
2024/02/14 04:14:54;;;;;;;6.00;2.88;;;;;;;8.39;96.61;99799.66;5029764;28;20084;-79
2024/02/14 04:17:19;;;;;;;5.38;2.92;;;;;;;8.15;97.67;99776.47;5029997;28;20046;-79
2024/02/14 04:19:44;;;;;;;5.47;2.83;;;;;;;8.00;98.64;99782.84;5030095;28;20034;-79
2024/02/14 04:22:10;;;;;;;5.18;2.70;;;;;;;8.18;99.12;99792.00;5028852;28;20112;-79
2024/02/14 04:24:36;;;;;;;5.38;3.17;;;;;;;8.22;98.79;99820.56;5028866;28;20037;-79
2024/02/14 04:27:04;;;;;;;5.72;3.13;;;;;;;8.26;99.29;99823.63;5028282;28;20033;-79
2024/02/14 04:29:32;;;;;;;5.25;3.05;;;;;;;8.23;98.47;99794.81;5029119;28;20481;-79
2024/02/14 04:31:59;;;;;;;5.80;3.20;;;;;;;8.10;98.42;99794.88;5029696;28;20025;-80
2024/02/14 04:34:24;;;;;;;5.72;2.95;;;;;;;8.16;98.67;99789.53;5029769;28;20108;-79
2024/02/14 04:36:49;;;;;;;7.20;3.13;;;;;;;8.16;99.10;99804.66;5029350;28;20100;-79
2024/02/14 04:39:15;;;;;;;5.90;3.58;;;;;;;8.30;98.47;99826.69;5029107;28;20498;-79
2024/02/14 04:41:40;;;;;;;5.95;3.15;;;;;;;8.33;97.50;99813.78;5029317;28;20034;-79
2024/02/14 04:44:08;;;;;;;7.05;3.55;;;;;;;8.04;99.19;99807.16;5029521;28;20079;-78
2024/02/14 04:46:35;;;;;;;5.45;3.15;;;;;;;8.24;98.83;99838.97;5028999;28;20037;-78
2024/02/14 04:49:02;;;;;;;5.50;3.53;;;;;;;8.21;98.03;99823.44;5035569;28;20064;-79
2024/02/14 04:51:30;;;;;;;5.97;3.37;;;;;;;8.20;97.69;99816.50;5028126;28;20068;-78
2024/02/14 04:53:58;;;;;;;6.72;3.50;;;;;;;8.29;97.87;99847.13;5029534;28;20710;-78
2024/02/14 04:56:23;;;;;;;;;;;;;;;8.45;96.91;99841.38;5029814;28;20030;-79
2024/02/14 04:58:49;;;;;;;6.10;3.50;;;;;;;8.37;96.66;99838.09;5035267;28;19934;-80
2024/02/14 05:01:15;;;;;;;6.25;3.83;;;;;;;8.44;95.93;99838.94;5049341;28;20397;-79
2024/02/14 05:03:40;;;;;;;7.10;3.97;;;;;;;8.37;96.90;99820.31;5048354;28;20029;-80
2024/02/14 05:06:06;;;;;;;7.82;4.32;;;;;;;8.48;97.59;99840.16;5037618;28;20026;-80
2024/02/14 05:08:32;;;;;;;6.93;4.10;;;;;;;8.20;100.00;99848.38;5035141;28;20131;-80
2024/02/14 05:10:57;;;;;;;6.07;3.38;;;;;;;8.17;99.72;99848.78;5034442;28;20398;-80
2024/02/14 05:13:23;;;;;;;6.72;3.88;;;;;;;8.22;100.00;99855.09;5035546;28;20039;-80
2024/02/14 05:15:50;;;;;;;6.30;3.92;;;;;;;8.24;100.00;99857.56;5036085;28;20052;-80
2024/02/14 05:18:16;;;;;;;7.60;4.22;;;;;;;8.11;99.44;99841.66;5034972;28;20455;-80
2024/02/14 05:20:42;;;;;;;6.85;3.60;;;;;;;7.99;100.00;99834.34;5035086;28;20060;-80
2024/02/14 05:23:07;;;;;;;6.70;3.90;;;;;;;8.07;100.00;99837.78;5035690;28;20079;-79
2024/02/14 05:25:33;;;;;;;7.38;3.80;;;;;;;7.99;100.00;99844.94;5036064;28;20033;-80
2024/02/14 05:27:59;;;;;;;6.40;3.70;;;;;;;8.18;97.94;99853.91;5036236;28;20690;-79
2024/02/14 05:30:24;;;;;;;7.07;3.67;;;;;;;8.10;98.15;99858.63;5035685;28;20083;-80
2024/02/14 05:32:52;;;;;;;7.38;4.22;;;;;;;7.92;98.99;99841.47;5035523;28;20021;-80
2024/02/14 05:35:18;;;;;;;6.78;3.67;;;;;;;8.09;97.87;99851.66;5035194;28;20033;-79
2024/02/14 05:37:43;;;;;;;6.97;3.78;;;;;;;8.18;94.92;99859.22;5033997;28;20500;-79
2024/02/14 05:40:09;;;;;;;7.80;4.85;;;;;;;8.41;95.36;99900.47;5032868;28;20042;-80
2024/02/14 05:42:34;;;;;;;7.22;4.50;;;;;;;8.37;94.41;99873.44;5031608;28;20079;-80
2024/02/14 05:45:00;;;;;;;7.53;4.40;;;;;;;8.45;93.54;99894.50;5030456;28;20039;-80
2024/02/14 05:47:25;;;;;;;10.13;6.80;;;;;;;8.40;92.96;99894.31;5030042;28;20037;-79
2024/02/14 05:49:51;;;;;;;9.38;5.68;;;;;;;8.52;92.10;99891.03;5029788;28;20045;-80
2024/02/14 05:52:18;;;;;;;9.13;6.68;;;;;;;8.56;91.69;99908.19;5029265;28;20034;-80
2024/02/14 05:54:43;;;;;;;13.65;8.60;;;;;;;8.47;90.33;99886.34;5027577;28;20521;-80
2024/02/14 05:57:09;;;;;;;27.17;17.58;;;;;;;8.56;91.36;99921.47;5028921;28;20529;-79
2024/02/14 05:59:34;;;;;;;12.77;10.35;;;;;;;8.49;90.18;99902.09;5036210;28;20033;-80
2024/02/14 06:02:02;;;;;;;6.85;4.63;;;;;;;8.64;89.89;99926.56;5048010;28;20120;-80
2024/02/14 06:04:28;;;;;;;8.00;4.43;;;;;;;8.70;89.10;99912.44;5048003;28;20541;-79
2024/02/14 06:06:53;;;;;;;8.70;4.80;;;;;;;8.70;88.54;99911.63;5033722;28;20064;-79
2024/02/14 06:09:19;;;;;;;7.40;5.47;;;;;;;8.60;89.28;99930.66;5032583;28;20387;-79
2024/02/14 06:11:44;;;;;;;6.85;3.90;;;;;;;8.76;87.30;99935.50;5048215;28;20108;-79
2024/02/14 06:14:09;;;;;;;7.30;4.50;;;;;;;8.60;88.23;99904.06;5047837;28;20118;-79
2024/02/14 06:16:35;;;;;;;7.00;4.03;;;;;;;8.75;86.94;99930.44;5037400;28;20024;-79
2024/02/14 06:19:01;;;;;;;7.45;4.30;;;;;;;8.76;88.12;99943.50;5027632;28;20561;-79
2024/02/14 06:21:26;;;;;;;8.40;4.88;;;;;;;8.71;87.94;99945.97;5028114;28;20025;-80
2024/02/14 06:23:52;;;;;;;7.07;4.57;;;;;;;8.55;89.18;99928.63;5028173;28;20033;-81
2024/02/14 06:26:18;;;;;;;7.53;4.90;;;;;;;8.69;88.23;99945.38;5027490;28;20029;-79
2024/02/14 06:28:46;;;;;;;6.53;4.22;;;;;;;8.80;86.46;99960.66;5026533;28;20051;-79
2024/02/14 06:31:12;;;;;;;7.90;4.32;;;;;;;8.57;87.75;99944.38;5027628;28;20033;-80
2024/02/14 06:33:37;;;;;;;7.57;4.47;;;;;;;8.56;87.55;99948.06;5027510;28;20037;-79
2024/02/14 06:36:03;;;;;;;8.48;4.75;;;;;;;8.60;85.41;99933.31;5025916;28;20060;-79
2024/02/14 06:38:28;;;;;;;10.52;5.80;;;;;;;8.73;86.05;99964.38;5027784;28;20592;-80
2024/02/14 06:40:54;;;;;;;8.02;5.40;;;;;;;8.77;85.64;99974.38;5027406;28;20068;-79
2024/02/14 06:43:19;;;;;;;11.27;6.47;;;;;;;8.78;86.63;99968.03;5027127;28;20049;-79
2024/02/14 06:45:45;;;;;;;9.15;5.65;;;;;;;8.52;85.30;99929.06;5026841;28;20083;-79
2024/02/14 06:48:11;;;;;;;9.07;5.80;;;;;;;8.68;85.84;99957.00;5026743;28;20073;-79
2024/02/14 06:50:36;;;;;;;10.18;6.78;;;;;;;8.81;86.52;99980.91;5027173;28;20040;-79
2024/02/14 06:53:02;;;;;;;11.43;6.85;;;;;;;8.63;85.11;99948.88;5027141;28;20037;-79
2024/02/14 06:55:28;;;;;;;11.95;6.78;;;;;;;8.88;85.23;99978.22;5027110;28;20025;-80
2024/02/14 06:57:54;;;;;;;14.82;9.45;;;;;;;8.78;85.86;99976.00;5027353;28;20087;-80
2024/02/14 07:00:20;;;;;;;14.05;9.52;;;;;;;8.88;85.35;99982.75;5026960;28;20030;-79
2024/02/14 07:02:47;;;;;;;9.98;6.45;;;;;;;9.01;84.83;99994.16;5027327;28;20079;-79
2024/02/14 07:05:14;;;;;;;10.70;6.60;;;;;;;8.61;84.96;99966.88;5025771;28;20037;-79
2024/02/14 07:07:40;;;;;;;12.15;6.70;;;;;;;8.89;86.01;100005.63;5026027;28;20080;-79
2024/02/14 07:10:06;;;;;;;13.35;6.95;;;;;;;8.84;85.96;99993.78;5028192;28;20025;-79
2024/02/14 07:12:32;;;;;;;11.20;6.55;;;;;;;8.85;85.32;100019.38;5027401;28;20703;-79
2024/02/14 07:14:57;;;;;;;12.88;8.13;;;;;;;8.83;84.50;100007.31;5025386;28;20052;-80
2024/02/14 07:17:23;;;;;;;11.85;7.38;;;;;;;8.94;85.80;100027.13;5026139;28;20129;-79
2024/02/14 07:19:49;;;;;;;20.75;12.77;;;;;;;8.93;84.98;100017.50;5018752;28;20172;-79
2024/02/14 07:22:15;;;;;;;16.67;10.63;;;;;;;9.04;83.21;100019.50;5015051;28;20029;-80
2024/02/14 07:24:42;;;;;;;21.08;12.80;;;;;;;8.92;83.60;100029.97;5036052;28;20017;-80
2024/02/14 07:27:08;;;;;;;20.00;11.18;;;;;;;9.02;84.34;100032.22;5030158;28;20433;-79
2024/02/14 07:29:33;;;;;;;12.43;7.78;;;;;;;8.99;84.91;100045.91;5019660;28;20406;-80
2024/02/14 07:32:02;;;;;;;13.07;7.38;;;;;;;9.10;84.38;100055.91;5025823;28;20102;-79
2024/02/14 07:34:27;;;;;;;16.20;9.27;;;;;;;9.07;82.61;100044.88;5017377;28;20057;-80
2024/02/14 07:36:52;;;;;;;16.38;8.57;;;;;;;9.07;82.25;100029.72;5011955;28;20100;-80
2024/02/14 07:39:18;;;;;;;35.13;19.23;;;;;;;9.14;84.25;100040.38;5025603;28;20033;-80
2024/02/14 07:41:44;;;;;;;18.20;10.60;;;;;;;9.32;82.42;100053.81;5026443;28;20033;-79
2024/02/14 07:44:09;;;;;;;20.88;11.20;;;;;;;9.28;83.16;100047.28;5017166;28;20037;-79
2024/02/14 07:46:34;;;;;;;20.65;11.50;;;;;;;9.37;81.27;100058.47;5014800;28;20042;-80
2024/02/14 07:49:00;;;;;;;21.00;10.82;;;;;;;9.39;82.44;100072.41;5026580;28;20037;-79
2024/02/14 07:51:25;;;;;;;15.35;9.48;;;;;;;9.35;81.15;100071.19;5026580;28;20467;-79
2024/02/14 07:53:51;;;;;;;17.85;9.68;;;;;;;9.29;82.69;100064.03;5027138;28;20160;-80
2024/02/14 07:56:18;;;;;;;21.95;11.10;;;;;;;9.32;81.56;100059.13;5026875;28;20026;-79
2024/02/14 07:58:43;;;;;;;17.20;10.63;;;;;;;9.44;82.12;100073.41;5026751;28;20025;-79
2024/02/14 08:01:09;;;;;;;17.20;9.80;;;;;;;9.51;82.21;100076.03;5029095;28;20044;-79
2024/02/14 08:03:34;;;;;;;18.25;10.18;;;;;;;9.48;79.86;100057.00;5030147;28;20017;-80
2024/02/14 08:06:02;;;;;;;14.20;7.38;;;;;;;9.36;78.81;100064.84;5030425;28;20030;-79
2024/02/14 08:08:27;;;;;;;15.00;9.15;;;;;;;9.39;81.06;100075.06;5029531;28;20030;-79
2024/02/14 08:10:53;;;;;;;13.90;8.57;;;;;;;9.49;79.82;100075.44;5032895;28;20128;-80
2024/02/14 08:13:18;;;;;;;13.07;8.02;;;;;;;9.44;80.66;100083.25;5030109;28;20104;-80
2024/02/14 08:15:43;;;;;;;17.45;10.30;;;;;;;9.46;80.94;100086.50;5030304;28;20535;-79
2024/02/14 08:18:09;;;;;;;15.25;8.82;;;;;;;9.57;80.43;100088.50;5028871;28;20026;-79
2024/02/14 08:20:34;;;;;;;14.23;9.13;;;;;;;9.31;81.49;100056.66;5028163;28;21192;-80
2024/02/14 08:23:00;;;;;;;20.42;11.05;;;;;;;9.61;80.29;100111.00;5028399;28;20033;-79
2024/02/14 08:25:26;;;;;;;20.55;11.50;;;;;;;9.87;77.67;100117.25;5027109;28;20033;-79
2024/02/14 08:27:52;;;;;;;14.75;9.45;;;;;;;9.67;79.12;100087.25;5028288;28;20029;-79
2024/02/14 08:30:19;;;;;;;23.02;14.05;;;;;;;9.69;78.74;100109.16;5028490;28;20030;-79
2024/02/14 08:32:44;;;;;;;30.35;14.90;;;;;;;9.60;79.07;100098.75;5027561;28;20100;-79
2024/02/14 08:35:13;;;;;;;19.45;11.15;;;;;;;9.66;79.27;100094.41;5029776;28;20124;-79
2024/02/14 08:37:40;;;;;;;13.90;9.02;;;;;;;9.74;77.90;100104.00;5029509;28;20025;-80
2024/02/14 08:40:06;;;;;;;15.45;9.55;;;;;;;9.76;78.16;100097.41;5028519;28;20064;-80
2024/02/14 08:42:34;;;;;;;16.63;9.43;;;;;;;9.80;77.75;100121.78;5029771;28;20076;-80
2024/02/14 08:44:59;;;;;;;17.10;9.70;;;;;;;9.68;78.25;100105.66;5029586;28;20136;-79
2024/02/14 08:47:26;;;;;;;13.93;9.45;;;;;;;9.49;78.88;100090.59;5029427;28;20093;-79
2024/02/14 08:49:51;;;;;;;15.77;9.85;;;;;;;9.70;78.33;100122.22;5028843;28;20453;-81
2024/02/14 08:52:18;;;;;;;12.15;7.93;;;;;;;9.50;77.29;100087.72;5028241;28;20563;-80
2024/02/14 08:54:44;;;;;;;12.15;8.13;;;;;;;9.77;78.48;100132.88;5028757;28;20037;-79
2024/02/14 08:57:09;;;;;;;18.95;9.85;;;;;;;9.79;78.40;100133.47;5030067;28;20056;-79
2024/02/14 08:59:34;;;;;;;13.40;9.02;;;;;;;9.77;78.26;100119.56;5028669;28;20047;-79
2024/02/14 09:02:00;;;;;;;12.68;7.75;;;;;;;9.54;77.42;100102.25;5028903;28;20557;-79
2024/02/14 09:04:27;;;;;;;12.88;8.52;;;;;;;9.65;77.77;100117.53;5028766;28;20029;-79
2024/02/14 09:06:52;;;;;;;11.43;7.15;;;;;;;9.64;77.45;100115.94;5028899;28;20021;-79
2024/02/14 09:09:19;;;;;;;12.88;7.65;;;;;;;9.75;76.88;100145.59;5029248;28;20052;-79
2024/02/14 09:11:46;;;;;;;11.68;6.97;;;;;;;9.65;76.91;100128.19;5027445;28;20033;-79
2024/02/14 09:14:11;;;;;;;11.57;6.68;;;;;;;9.85;77.37;100148.63;5027714;28;20565;-79
2024/02/14 09:16:37;;;;;;;14.40;7.35;;;;;;;9.82;75.04;100133.84;5029066;28;20514;-79
2024/02/14 09:19:05;;;;;;;11.85;7.32;;;;;;;10.05;74.32;100144.00;5027260;28;20029;-79
2024/02/14 09:21:30;;;;;;;11.15;7.35;;;;;;;10.08;73.38;100147.28;5029639;28;20025;-79
2024/02/14 09:23:56;;;;;;;11.57;7.85;;;;;;;10.11;73.28;100147.66;5028119;28;20029;-80
2024/02/14 09:26:22;;;;;;;10.88;6.82;;;;;;;10.16;71.33;100128.38;5026749;28;20033;-78
2024/02/14 09:28:48;;;;;;;11.02;6.60;;;;;;;10.12;73.29;100148.47;5027323;28;20419;-79
2024/02/14 09:31:19;;;;;;;15.02;9.27;;;;;;;10.30;73.64;100135.28;5028453;28;20036;-79
2024/02/14 09:33:47;;;;;;;17.60;9.98;;;;;;;10.48;70.95;100147.03;5028726;28;20041;-79
2024/02/14 09:36:14;;;;;;;10.60;6.63;;;;;;;10.47;69.86;100145.41;5027905;28;20494;-79
2024/02/14 09:38:40;;;;;;;15.52;10.02;;;;;;;10.26;72.65;100161.50;5027942;28;20029;-79
2024/02/14 09:41:30;;;;;;;10.80;6.93;;;;;;;10.42;71.67;100162.03;5027880;28;20124;-79
2024/02/14 09:43:56;;;;;;;10.70;6.68;;;;;;;10.39;72.09;100160.63;5007602;28;20069;-80
2024/02/14 09:46:25;;;;;;;10.98;7.07;;;;;;;10.15;69.95;100116.88;5008319;28;20388;-79
2024/02/14 09:48:52;;;;;;;10.23;6.47;;;;;;;10.20;71.91;100156.22;5013762;28;20021;-80
2024/02/14 09:51:17;;;;;;;10.00;6.40;;;;;;;10.24;71.35;100125.44;5027827;28;20036;-79
2024/02/14 09:53:44;;;;;;;10.18;5.22;;;;;;;10.13;71.76;100139.44;5024317;28;20045;-78
2024/02/14 09:56:11;;;;;;;12.25;6.10;;;;;;;9.98;72.25;100095.25;5028479;28;20121;-79
2024/02/14 09:58:37;;;;;;;8.75;5.60;;;;;;;10.32;71.84;100149.22;5027633;28;20029;-79
2024/02/14 10:01:02;;;;;;;10.02;6.28;;;;;;;10.25;72.69;100127.06;5028359;28;20044;-79
2024/02/14 10:03:28;;;;;;;10.45;6.22;;;;;;;10.30;74.14;100129.94;5027575;28;20453;-79
2024/02/14 10:05:54;;;;;;;8.13;5.03;;;;;;;10.14;73.74;100131.25;5027840;28;20591;-79
2024/02/14 10:08:22;;;;;;;9.45;5.55;;;;;;;10.22;74.37;100140.84;5026304;28;20152;-79
2024/02/14 10:10:49;;;;;;;;;;;;;;;10.18;73.64;100144.97;5028300;28;20461;-79
2024/02/14 10:13:16;;;;;;;10.95;6.28;;;;;;;9.90;74.84;100135.47;5027525;28;19909;-79
2024/02/14 10:15:41;;;;;;;11.30;7.25;;;;;;;10.06;74.07;100129.63;5027416;28;20522;-79
2024/02/14 10:18:09;;;;;;;12.15;7.18;;;;;;;10.26;73.08;100136.72;5027301;28;20037;-78
2024/02/14 10:20:40;;;;;;;13.88;7.88;;;;;;;10.35;74.71;100121.28;5044226;28;20474;-79
2024/02/14 10:23:08;;;;;;;11.13;6.60;;;;;;;10.20;73.42;100119.72;5034919;28;20056;-79
2024/02/14 10:25:38;;;;;;;11.88;7.35;;;;;;;10.34;73.09;100116.97;5027875;28;20120;-79
2024/02/14 10:28:08;;;;;;;12.82;7.95;;;;;;;10.30;72.67;100119.28;5027833;28;20033;-79
2024/02/14 10:30:35;;;;;;;11.88;7.50;;;;;;;10.23;73.49;100107.81;5027799;28;20056;-78
2024/02/14 10:33:03;;;;;;;11.77;7.50;;;;;;;10.21;73.43;100102.69;5029820;28;20049;-79
2024/02/14 10:35:31;;;;;;;10.43;6.78;;;;;;;10.34;72.00;100136.47;5027784;28;20099;-79
2024/02/14 10:38:00;;;;;;;10.52;6.35;;;;;;;10.20;71.69;100132.25;5027455;28;20509;-78
2024/02/14 10:40:28;;;;;;;11.45;7.28;;;;;;;10.21;72.53;100117.88;5027370;28;20479;-78
2024/02/14 10:42:58;;;;;;;9.52;6.72;;;;;;;10.21;72.25;100101.88;5027402;28;20087;-78
2024/02/14 10:45:26;;;;;;;11.50;6.78;;;;;;;10.41;72.29;100118.56;5027240;28;20034;-79
2024/02/14 10:47:53;;;;;;;10.88;7.70;;;;;;;10.28;73.48;100100.00;5026918;28;20091;-79
2024/02/14 10:50:21;;;;;;;11.25;7.57;;;;;;;10.78;71.62;100136.56;5027179;28;20021;-79
2024/02/14 10:52:48;;;;;;;12.63;8.63;;;;;;;10.89;72.48;100132.34;5027495;28;20075;-79
2024/02/14 10:55:16;;;;;;;12.10;7.78;;;;;;;10.92;70.07;100132.72;5027441;28;20725;-79
2024/02/14 10:57:43;;;;;;;10.80;7.15;;;;;;;10.57;70.77;100092.41;5025975;28;20041;-79
2024/02/14 11:00:13;;;;;;;11.57;7.40;;;;;;;10.83;71.64;100137.53;5027351;28;20032;-79
2024/02/14 11:02:40;;;;;;;11.20;7.57;;;;;;;10.74;70.40;100120.16;5029060;28;20473;-78
2024/02/14 11:05:06;;;;;;;10.20;6.78;;;;;;;10.69;70.94;100127.22;5027570;28;20045;-78
2024/02/14 11:07:32;;;;;;;10.00;6.75;;;;;;;10.48;70.75;100147.03;5026885;28;20025;-79
2024/02/14 11:10:04;;;;;;;12.48;7.85;;;;;;;10.60;71.91;100145.31;5027172;28;20057;-79
2024/02/14 11:12:35;;;;;;;11.27;7.55;;;;;;;10.71;70.91;100131.28;5025237;28;20037;-79
2024/02/14 11:15:01;;;;;;;10.63;7.35;;;;;;;10.81;71.45;100123.59;5026868;28;20057;-79
2024/02/14 11:17:27;;;;;;;11.95;7.88;;;;;;;11.11;70.32;100136.25;5026352;28;20060;-79
2024/02/14 11:19:53;;;;;;;10.45;6.78;;;;;;;10.93;68.64;100107.69;5027445;28;20013;-78
2024/02/14 11:22:20;;;;;;;10.43;7.10;;;;;;;10.77;68.47;100098.41;5026670;28;20034;-79
2024/02/14 11:24:46;;;;;;;11.07;7.28;;;;;;;10.89;68.54;100106.50;5026377;28;20021;-79
2024/02/14 11:27:12;;;;;;;12.35;8.05;;;;;;;11.37;68.41;100137.00;5026999;28;20026;-79